Time;durP1;ratioP1;P1;durP2;ratioP2;P2;SDS_P1;SDS_P2;PMS_P1;PMS_P2;Temp;Humidity;BMP_temperature;BMP_pressure;BME280_temperature;BME280_humidity;BME280_pressure;Samples;Min_cycle;Max_cycle;Signal;HPM_P1;HPM_P2
2022/02/22 00:01:39;;;;;;;;;;;18.60;41.00;;;;;;5093032;28;20386;-62
2022/02/22 00:04:04;;;;;;;;;;;18.60;41.00;;;;;;5093070;28;19908;-62
2022/02/22 00:06:30;;;;;;;;;;;18.60;41.00;;;;;;5075942;28;19958;-62
2022/02/22 00:08:56;;;;;;;;;;;18.50;41.00;;;;;;5100015;28;19909;-62
2022/02/22 00:11:22;;;;;;;;;;;18.50;41.00;;;;;;5100081;28;19995;-63
2022/02/22 00:13:48;;;;;;;;;;;18.50;41.00;;;;;;5081998;28;19955;-62
2022/02/22 00:16:13;;;;;;;;;;;18.50;41.00;;;;;;5100446;28;19908;-62
2022/02/22 00:18:39;;;;;;;;;;;18.50;41.00;;;;;;5100150;28;20584;-62
2022/02/22 00:21:04;;;;;;;;;;;18.50;41.00;;;;;;5100040;28;19946;-63
2022/02/22 00:23:30;;;;;;;;;;;18.50;41.00;;;;;;5100153;28;20378;-62
2022/02/22 00:25:55;;;;;;;;;;;18.50;41.00;;;;;;5100603;28;20016;-62
2022/02/22 00:28:21;;;;;;;;;;;18.50;40.90;;;;;;5081799;28;19953;-63
2022/02/22 00:30:47;;;;;;;;;;;18.50;40.90;;;;;;5099871;28;20368;-63
2022/02/22 00:33:13;;;;;;;;;;;18.50;40.90;;;;;;5099802;28;20291;-62
2022/02/22 00:35:39;;;;;;;;;;;18.50;41.00;;;;;;5100128;28;20166;-62
2022/02/22 00:38:04;;;;;;;;;;;18.50;41.00;;;;;;5100009;28;20279;-62
2022/02/22 00:40:29;;;;;;;;;;;18.50;41.00;;;;;;5099367;28;19912;-62
2022/02/22 00:42:55;;;;;;;;;;;18.50;41.00;;;;;;5099428;28;19908;-62
2022/02/22 00:45:20;;;;;;;;;;;18.50;41.00;;;;;;5099226;28;20049;-62
2022/02/22 00:47:46;;;;;;;;;;;18.50;41.00;;;;;;5064095;28;19942;-63
2022/02/22 00:50:11;;;;;;;;;;;18.50;40.90;;;;;;5081120;28;19908;-62
2022/02/22 00:52:37;;;;;;;;;;;18.50;40.90;;;;;;5099100;28;20329;-63
2022/02/22 00:55:03;;;;;;;;;;;18.50;40.90;;;;;;5099231;28;19908;-62
2022/02/22 00:57:28;;;;;;;;;;;18.40;41.00;;;;;;5099016;28;19908;-63
2022/02/22 00:59:53;;;;;;;;;;;18.40;40.90;;;;;;5098927;28;19962;-62
2022/02/22 01:02:19;;;;;;;;;;;18.40;41.00;;;;;;5098899;28;19912;-63
2022/02/22 01:04:44;;;;;;;;;;;18.40;41.00;;;;;;5099195;28;19950;-62
2022/02/22 01:07:16;;;;;;;;;;;18.40;40.90;;;;;;5098859;28;20033;-63
2022/02/22 01:09:44;;;;;;;;;;;18.40;40.90;;;;;;5098949;28;20011;-62
2022/02/22 01:12:10;;;;;;;;;;;18.40;40.90;;;;;;5098909;28;19962;-62
2022/02/22 01:14:36;;;;;;;;;;;18.40;40.90;;;;;;5098930;28;20412;-62
2022/02/22 01:17:01;;;;;;;;;;;18.40;40.90;;;;;;5098878;28;19909;-62
2022/02/22 01:19:27;;;;;;;;;;;18.40;40.90;;;;;;5095812;28;19970;-62
2022/02/22 01:21:52;;;;;;;;;;;18.40;40.90;;;;;;5095893;28;19908;-62
2022/02/22 01:24:18;;;;;;;;;;;18.40;40.80;;;;;;5095620;28;19915;-62
2022/02/22 01:26:43;;;;;;;;;;;18.40;40.90;;;;;;5095688;28;20371;-62
2022/02/22 01:29:09;;;;;;;;;;;18.40;40.90;;;;;;5095544;28;19908;-63
2022/02/22 01:31:34;;;;;;;;;;;18.40;40.90;;;;;;5095633;28;19908;-62
2022/02/22 01:33:59;;;;;;;;;;;18.40;40.90;;;;;;5095439;28;19919;-62
2022/02/22 01:36:25;;;;;;;;;;;18.40;40.90;;;;;;5095661;28;19908;-62
2022/02/22 01:38:52;;;;;;;;;;;18.40;40.90;;;;;;5095441;28;19998;-62
2022/02/22 01:41:19;;;;;;;;;;;18.40;40.90;;;;;;5095519;28;19908;-63
2022/02/22 01:43:44;;;;;;;;;;;18.30;40.80;;;;;;5095451;28;19915;-63
2022/02/22 01:46:10;;;;;;;;;;;18.40;40.90;;;;;;5077140;28;19958;-63
2022/02/22 01:48:36;;;;;;;;;;;18.40;40.90;;;;;;5095595;28;20022;-63
2022/02/22 01:51:01;;;;;;;;;;;18.30;40.90;;;;;;5077500;28;20249;-62
2022/02/22 01:53:27;;;;;;;;;;;18.30;40.90;;;;;;5095711;28;20284;-62
2022/02/22 01:55:52;;;;;;;;;;;18.30;40.90;;;;;;5095598;28;20391;-63
2022/02/22 01:58:17;;;;;;;;;;;18.30;40.90;;;;;;5095581;28;20002;-62
2022/02/22 02:00:45;;;;;;;;;;;18.30;40.90;;;;;;5095393;28;19974;-62
2022/02/22 02:03:14;;;;;;;;;;;18.30;40.90;;;;;;5095461;28;19908;-62
2022/02/22 02:05:39;;;;;;;;;;;18.30;40.90;;;;;;5095452;28;20265;-62
2022/02/22 02:08:05;;;;;;;;;;;18.30;40.90;;;;;;5095413;28;19962;-63
2022/02/22 02:10:30;;;;;;;;;;;18.30;40.90;;;;;;5077401;28;19908;-63
2022/02/22 02:12:56;;;;;;;;;;;18.30;40.90;;;;;;5095342;28;19912;-62
2022/02/22 02:15:21;;;;;;;;;;;18.20;40.90;;;;;;5077046;28;19908;-62
2022/02/22 02:17:47;;;;;;;;;;;18.30;40.90;;;;;;5095344;28;19915;-62
2022/02/22 02:20:12;;;;;;;;;;;18.20;40.90;;;;;;5095230;28;20029;-62
2022/02/22 02:22:38;;;;;;;;;;;18.30;40.90;;;;;;5076985;28;19908;-62
2022/02/22 02:25:04;;;;;;;;;;;18.20;40.90;;;;;;5095046;28;19920;-63
2022/02/22 02:27:30;;;;;;;;;;;18.30;40.90;;;;;;5095383;28;19915;-62
2022/02/22 02:29:59;;;;;;;;;;;18.30;40.90;;;;;;5094582;28;19915;-62
2022/02/22 02:32:28;;;;;;;;;;;18.20;40.90;;;;;;5094715;28;19908;-63
2022/02/22 02:34:54;;;;;;;;;;;18.20;40.80;;;;;;5094932;28;19915;-62
2022/02/22 02:37:19;;;;;;;;;;;18.20;40.90;;;;;;5094751;28;20315;-62
2022/02/22 02:39:45;;;;;;;;;;;18.30;40.90;;;;;;5094582;28;19915;-62
2022/02/22 02:42:10;;;;;;;;;;;18.20;40.90;;;;;;5094611;28;19908;-63
2022/02/22 02:44:36;;;;;;;;;;;18.30;40.90;;;;;;5094411;28;19954;-62
2022/02/22 02:47:01;;;;;;;;;;;18.20;40.80;;;;;;5076507;28;19908;-62
2022/02/22 02:49:27;;;;;;;;;;;18.20;40.80;;;;;;5094574;28;20313;-62
2022/02/22 02:51:52;;;;;;;;;;;18.20;40.90;;;;;;5094439;28;19908;-62
2022/02/22 02:54:18;;;;;;;;;;;18.20;40.90;;;;;;5094234;28;19908;-62
2022/02/22 02:56:43;;;;;;;;;;;18.20;40.90;;;;;;5075979;28;19946;-63
2022/02/22 02:59:10;;;;;;;;;;;18.20;40.90;;;;;;5093918;28;19927;-62
2022/02/22 03:01:38;;;;;;;;;;;18.20;40.90;;;;;;5075987;28;19946;-62
2022/02/22 03:04:04;;;;;;;;;;;18.20;40.90;;;;;;5093813;28;20488;-62
2022/02/22 03:06:29;;;;;;;;;;;18.20;40.90;;;;;;5094011;28;20047;-62
2022/02/22 03:08:55;;;;;;;;;;;18.20;40.90;;;;;;5093775;28;19953;-62
2022/02/22 03:11:21;;;;;;;;;;;18.20;40.90;;;;;;5093719;28;19919;-63
2022/02/22 03:13:46;;;;;;;;;;;18.20;40.90;;;;;;5075337;28;19908;-63
2022/02/22 03:16:12;;;;;;;;;;;18.20;40.90;;;;;;5093596;28;19908;-62
2022/02/22 03:18:38;;;;;;;;;;;18.10;40.90;;;;;;5093761;28;19908;-62
2022/02/22 03:21:04;;;;;;;;;;;18.10;40.90;;;;;;5094038;28;19931;-63
2022/02/22 03:23:29;;;;;;;;;;;18.10;40.90;;;;;;5093698;28;19916;-62
2022/02/22 03:25:55;;;;;;;;;;;18.10;40.90;;;;;;5093464;28;19916;-63
2022/02/22 03:28:21;;;;;;;;;;;18.10;40.90;;;;;;5093778;28;20369;-63
2022/02/22 03:30:47;;;;;;;;;;;18.10;40.90;;;;;;5093551;28;19915;-62
2022/02/22 03:33:13;;;;;;;;;;;18.20;40.90;;;;;;5093546;28;19908;-62
2022/02/22 03:35:39;;;;;;;;;;;18.10;40.90;;;;;;5093410;28;20430;-62
2022/02/22 03:38:05;;;;;;;;;;;18.10;40.90;;;;;;5093662;28;19953;-62
2022/02/22 03:40:30;;;;;;;;;;;18.10;40.90;;;;;;5093695;28;19920;-62
2022/02/22 03:42:55;;;;;;;;;;;18.10;40.90;;;;;;5093332;28;19916;-62
2022/02/22 03:45:21;;;;;;;;;;;18.10;40.90;;;;;;5093528;28;19916;-62
2022/02/22 03:47:46;;;;;;;;;;;18.10;40.90;;;;;;5093783;28;19915;-62
2022/02/22 03:50:13;;;;;;;;;;;18.10;40.90;;;;;;5093586;28;19915;-62
2022/02/22 03:52:38;;;;;;;;;;;18.10;40.90;;;;;;5093707;28;20000;-62
2022/02/22 03:55:05;;;;;;;;;;;18.10;40.90;;;;;;5075428;28;19944;-62
2022/02/22 03:57:30;;;;;;;;;;;18.10;40.90;;;;;;5093441;28;19912;-63
2022/02/22 03:59:56;;;;;;;;;;;18.10;40.90;;;;;;5093269;28;19916;-62
2022/02/22 04:02:21;;;;;;;;;;;18.10;40.90;;;;;;5093474;28;19909;-63
2022/02/22 04:04:47;;;;;;;;;;;18.10;40.90;;;;;;5093290;28;19952;-63
2022/02/22 04:07:13;;;;;;;;;;;18.10;40.80;;;;;;5093383;28;19938;-62
2022/02/22 04:09:38;;;;;;;;;;;18.10;40.80;;;;;;5093553;28;19917;-62
2022/02/22 04:12:04;;;;;;;;;;;18.10;40.90;;;;;;5075167;28;20352;-63
2022/02/22 04:14:29;;;;;;;;;;;18.10;40.90;;;;;;5093639;28;20321;-63
2022/02/22 04:16:55;;;;;;;;;;;18.10;40.90;;;;;;5093525;28;19908;-63
2022/02/22 04:19:21;;;;;;;;;;;18.10;40.90;;;;;;5093255;28;19915;-63
2022/02/22 04:21:46;;;;;;;;;;;18.10;40.90;;;;;;5093252;28;19930;-63
2022/02/22 04:24:11;;;;;;;;;;;18.10;40.80;;;;;;5093214;28;19915;-63
2022/02/22 04:26:37;;;;;;;;;;;18.10;40.90;;;;;;5074953;28;19941;-62
2022/02/22 04:29:02;;;;;;;;;;;18.10;40.90;;;;;;5093187;28;19908;-62
2022/02/22 04:31:28;;;;;;;;;;;18.10;40.90;;;;;;5093177;28;20348;-62
2022/02/22 04:33:54;;;;;;;;;;;18.10;40.90;;;;;;5093206;28;19915;-62
2022/02/22 04:36:20;;;;;;;;;;;18.10;40.90;;;;;;5093129;28;19957;-63
2022/02/22 04:38:45;;;;;;;;;;;18.10;40.90;;;;;;5074797;28;19923;-63
2022/02/22 04:41:11;;;;;;;;;;;18.10;40.90;;;;;;5092917;28;19908;-62
2022/02/22 04:43:36;;;;;;;;;;;18.00;40.90;;;;;;5093109;28;20424;-62
2022/02/22 04:46:02;;;;;;;;;;;18.00;40.90;;;;;;5074685;28;20233;-63
2022/02/22 04:48:27;;;;;;;;;;;18.00;40.90;;;;;;5092770;28;20247;-63
2022/02/22 04:50:53;;;;;;;;;;;18.00;40.90;;;;;;5092474;28;19954;-62
2022/02/22 04:53:18;;;;;;;;;;;18.00;40.90;;;;;;5074198;28;19908;-63
2022/02/22 04:55:44;;;;;;;;;;;18.00;40.90;;;;;;5096183;28;20008;-62
2022/02/22 04:58:09;;;;;;;;;;;18.00;40.90;;;;;;5096237;28;19908;-63
2022/02/22 05:00:34;;;;;;;;;;;18.00;40.90;;;;;;5077760;28;19927;-62
2022/02/22 05:03:00;;;;;;;;;;;18.00;40.90;;;;;;5077865;28;19912;-63
2022/02/22 05:05:25;;;;;;;;;;;18.00;40.90;;;;;;5096065;28;20448;-63
2022/02/22 05:07:51;;;;;;;;;;;18.00;40.90;;;;;;5096067;28;20360;-62
2022/02/22 05:10:16;;;;;;;;;;;18.00;40.90;;;;;;5096004;28;20252;-62
2022/02/22 05:12:41;;;;;;;;;;;18.00;40.90;;;;;;5096145;28;19908;-62
2022/02/22 05:15:07;;;;;;;;;;;18.00;40.80;;;;;;5096222;28;19951;-63
2022/02/22 05:17:33;;;;;;;;;;;18.00;40.80;;;;;;5077692;28;19916;-62
2022/02/22 05:19:58;;;;;;;;;;;18.10;40.80;;;;;;5077742;28;19974;-62
2022/02/22 05:22:24;;;;;;;;;;;18.10;40.80;;;;;;5095868;28;19988;-62
2022/02/22 05:24:49;;;;;;;;;;;18.10;40.70;;;;;;5096207;28;19916;-63
2022/02/22 05:27:14;;;;;;;;;;;18.10;40.70;;;;;;5096206;28;19944;-63
2022/02/22 05:29:40;;;;;;;;;;;18.10;40.70;;;;;;5096360;28;20302;-63
2022/02/22 05:32:06;;;;;;;;;;;18.10;40.70;;;;;;5096137;28;20429;-63
2022/02/22 05:34:34;;;;;;;;;;;18.10;40.60;;;;;;5096056;28;19908;-63
2022/02/22 05:37:00;;;;;;;;;;;18.20;40.60;;;;;;5077982;28;20327;-63
2022/02/22 05:39:25;;;;;;;;;;;18.20;40.60;;;;;;5095824;28;19908;-63
2022/02/22 05:41:51;;;;;;;;;;;18.20;40.60;;;;;;5095746;28;19931;-63
2022/02/22 05:44:16;;;;;;;;;;;18.20;40.50;;;;;;5095568;28;19915;-63
2022/02/22 05:46:41;;;;;;;;;;;18.20;40.50;;;;;;5095277;28;19942;-63
2022/02/22 05:49:07;;;;;;;;;;;18.20;40.60;;;;;;5095238;28;20011;-62
2022/02/22 05:51:32;;;;;;;;;;;18.20;40.50;;;;;;5094997;28;19982;-62
2022/02/22 05:53:58;;;;;;;;;;;18.20;40.50;;;;;;5076875;28;19915;-63
2022/02/22 05:56:23;;;;;;;;;;;18.20;40.50;;;;;;5095429;28;20378;-63
2022/02/22 05:58:49;;;;;;;;;;;18.20;40.40;;;;;;5095153;28;19961;-62
2022/02/22 06:01:14;;;;;;;;;;;18.20;40.50;;;;;;5095317;28;19966;-63
2022/02/22 06:03:39;;;;;;;;;;;18.30;40.40;;;;;;5076791;28;19916;-63
2022/02/22 06:06:05;;;;;;;;;;;18.20;40.40;;;;;;5094616;28;19985;-63
2022/02/22 06:08:30;;;;;;;;;;;18.30;40.30;;;;;;5094780;28;19908;-62
2022/02/22 06:10:56;;;;;;;;;;;18.30;40.40;;;;;;5094765;28;19908;-63
2022/02/22 06:13:22;;;;;;;;;;;18.30;40.30;;;;;;5094744;28;20017;-63
2022/02/22 06:15:47;;;;;;;;;;;18.30;40.30;;;;;;5094574;28;19908;-62
2022/02/22 06:18:13;;;;;;;;;;;18.30;40.40;;;;;;5095278;28;19908;-63
2022/02/22 06:20:39;;;;;;;;;;;18.30;40.40;;;;;;5094993;28;20367;-63
2022/02/22 06:23:05;;;;;;;;;;;18.30;40.30;;;;;;5094955;28;19908;-63
2022/02/22 06:25:31;;;;;;;;;;;18.30;40.40;;;;;;5076619;28;20371;-63
2022/02/22 06:27:56;;;;;;;;;;;18.30;40.30;;;;;;5094655;28;19908;-63
2022/02/22 06:30:23;;;;;;;;;;;18.30;40.30;;;;;;5094662;28;19908;-63
2022/02/22 06:32:49;;;;;;;;;;;18.30;40.30;;;;;;5094638;28;19908;-63
2022/02/22 06:35:15;;;;;;;;;;;18.40;40.30;;;;;;5094608;28;19908;-63
2022/02/22 06:37:41;;;;;;;;;;;18.40;40.30;;;;;;5094644;28;19909;-63
2022/02/22 06:40:06;;;;;;;;;;;18.40;40.30;;;;;;5094522;28;19937;-63
2022/02/22 06:42:36;;;;;;;;;;;18.40;40.30;;;;;;5094736;28;19908;-62
2022/02/22 06:45:02;;;;;;;;;;;18.40;40.30;;;;;;5094615;28;19916;-62
2022/02/22 06:47:27;;;;;;;;;;;18.40;40.30;;;;;;5094847;28;19951;-63
2022/02/22 06:49:53;;;;;;;;;;;18.40;40.20;;;;;;5093971;28;20380;-63
2022/02/22 06:52:18;;;;;;;;;;;18.40;40.20;;;;;;5094142;28;19977;-62
2022/02/22 06:54:45;;;;;;;;;;;18.40;40.20;;;;;;5093880;28;19909;-63
2022/02/22 06:57:11;;;;;;;;;;;18.40;40.20;;;;;;5093933;28;19934;-63
2022/02/22 06:59:36;;;;;;;;;;;18.40;40.20;;;;;;5093772;28;20312;-62
2022/02/22 07:02:02;;;;;;;;;;;18.50;40.10;;;;;;5094014;28;19913;-63
2022/02/22 07:04:27;;;;;;;;;;;18.40;40.10;;;;;;5093935;28;19961;-62
2022/02/22 07:06:52;;;;;;;;;;;18.40;40.10;;;;;;5075524;28;19958;-62
2022/02/22 07:09:18;;;;;;;;;;;18.50;40.20;;;;;;5093544;28;19942;-62
2022/02/22 07:11:43;;;;;;;;;;;18.50;40.10;;;;;;5093419;28;19909;-62
2022/02/22 07:14:10;;;;;;;;;;;18.50;40.10;;;;;;5093328;28;19916;-63
2022/02/22 07:16:36;;;;;;;;;;;18.50;40.10;;;;;;5092681;28;19961;-63
2022/02/22 07:19:01;;;;;;;;;;;18.50;40.10;;;;;;5093330;28;19908;-62
2022/02/22 07:21:27;;;;;;;;;;;18.50;40.10;;;;;;5093272;28;20353;-63
2022/02/22 07:23:52;;;;;;;;;;;18.50;40.10;;;;;;5093280;28;19908;-62
2022/02/22 07:26:17;;;;;;;;;;;18.50;40.10;;;;;;5093187;28;19924;-63
2022/02/22 07:28:43;;;;;;;;;;;18.50;40.10;;;;;;5093402;28;19919;-63
2022/02/22 07:31:11;;;;;;;;;;;18.50;40.00;;;;;;5093397;28;20056;-63
2022/02/22 07:33:38;;;;;;;;;;;18.50;40.00;;;;;;5093726;28;20002;-63
2022/02/22 07:36:03;;;;;;;;;;;18.50;40.00;;;;;;5075633;28;19907;-63
2022/02/22 07:38:29;;;;;;;;;;;18.50;40.00;;;;;;5093964;28;19953;-62
2022/02/22 07:40:54;;;;;;;;;;;18.50;40.00;;;;;;5093706;28;20283;-62
2022/02/22 07:43:20;;;;;;;;;;;18.50;40.00;;;;;;5093532;28;20329;-62
2022/02/22 07:45:45;;;;;;;;;;;18.50;40.00;;;;;;5093342;28;19985;-63
2022/02/22 07:48:11;;;;;;;;;;;18.50;40.00;;;;;;5093386;28;19991;-63
2022/02/22 07:50:38;;;;;;;;;;;18.60;39.90;;;;;;5093432;28;19908;-62
2022/02/22 07:53:04;;;;;;;;;;;18.60;40.00;;;;;;5075340;28;19915;-63
2022/02/22 07:55:29;;;;;;;;;;;18.60;39.90;;;;;;5093453;28;19942;-63
2022/02/22 07:57:54;;;;;;;;;;;18.60;39.90;;;;;;5075851;28;20352;-63
2022/02/22 08:00:20;;;;;;;;;;;18.60;39.90;;;;;;5093163;28;20323;-62
2022/02/22 08:02:45;;;;;;;;;;;18.60;39.90;;;;;;5093415;28;19908;-63
2022/02/22 08:05:12;;;;;;;;;;;18.60;39.90;;;;;;5093268;28;20272;-63
2022/02/22 08:07:37;;;;;;;;;;;18.70;39.90;;;;;;5093477;28;19999;-63
2022/02/22 08:10:07;;;;;;;;;;;18.70;39.90;;;;;;5075365;28;20060;-63
2022/02/22 08:12:32;;;;;;;;;;;18.70;39.90;;;;;;5093400;28;19909;-63
2022/02/22 08:14:58;;;;;;;;;;;18.70;39.90;;;;;;5093455;28;19934;-63
2022/02/22 08:17:23;;;;;;;;;;;18.70;40.00;;;;;;5093355;28;19912;-62
2022/02/22 08:19:49;;;;;;;;;;;18.70;40.00;;;;;;5092974;28;20348;-62
2022/02/22 08:22:14;;;;;;;;;;;18.70;39.90;;;;;;5093045;28;19915;-63
2022/02/22 08:24:40;;;;;;;;;;;18.70;40.00;;;;;;5092988;28;19947;-63
2022/02/22 08:27:05;;;;;;;;;;;18.70;40.00;;;;;;5093162;28;19916;-62
2022/02/22 08:29:34;;;;;;;;;;;18.70;40.00;;;;;;5096987;28;19955;-63
2022/02/22 08:31:59;;;;;;;;;;;18.70;40.10;;;;;;5097124;28;19908;-62
2022/02/22 08:34:25;;;;;;;;;;;18.70;40.00;;;;;;5096399;28;19915;-62
2022/02/22 08:36:50;;;;;;;;;;;18.70;40.00;;;;;;5096472;28;20260;-63
2022/02/22 08:39:16;;;;;;;;;;;18.80;40.00;;;;;;5077884;28;19927;-62
2022/02/22 08:41:42;;;;;;;;;;;18.80;40.00;;;;;;5095169;28;19961;-62
2022/02/22 08:44:10;;;;;;;;;;;18.80;40.00;;;;;;5095996;28;19908;-63
2022/02/22 08:46:35;;;;;;;;;;;18.80;40.00;;;;;;5094745;28;19923;-62
2022/02/22 08:49:01;;;;;;;;;;;18.70;40.20;;;;;;5096181;28;19908;-63
2022/02/22 08:51:26;;;;;;;;;;;18.60;40.30;;;;;;5096698;28;19908;-63
2022/02/22 08:53:52;;;;;;;;;;;18.70;40.30;;;;;;5096762;28;19996;-60
2022/02/22 08:56:18;;;;;;;;;;;18.70;40.20;;;;;;5084610;28;19908;-61
2022/02/22 08:58:43;;;;;;;;;;;18.80;40.10;;;;;;5088098;28;19943;-61
2022/02/22 09:01:09;;;;;;;;;;;18.80;40.10;;;;;;5076243;28;20413;-61
2022/02/22 09:03:34;;;;;;;;;;;18.80;40.10;;;;;;5076778;28;19908;-61
2022/02/22 09:06:00;;;;;;;;;;;18.90;40.00;;;;;;5095522;28;19955;-61
2022/02/22 09:08:26;;;;;;;;;;;18.80;40.00;;;;;;5077260;28;19915;-61
2022/02/22 09:10:52;;;;;;;;;;;18.80;40.10;;;;;;5095865;28;19908;-60
2022/02/22 09:13:17;;;;;;;;;;;18.80;40.30;;;;;;5095326;28;19908;-63
2022/02/22 09:15:43;;;;;;;;;;;18.80;40.20;;;;;;5095672;28;19931;-63
2022/02/22 09:18:09;;;;;;;;;;;18.80;40.20;;;;;;5095526;28;19915;-62
2022/02/22 09:20:34;;;;;;;;;;;18.80;40.10;;;;;;5095388;28;20004;-61
2022/02/22 09:23:00;;;;;;;;;;;18.90;40.00;;;;;;5081807;28;19916;-61
2022/02/22 09:25:32;;;;;;;;;;;19.00;39.90;;;;;;5076422;28;20353;-61
2022/02/22 09:27:58;;;;;;;;;;;19.00;40.00;;;;;;5087552;28;20364;-61
2022/02/22 09:30:23;;;;;;;;;;;19.00;40.00;;;;;;5080291;28;19912;-61
2022/02/22 09:32:49;;;;;;;;;;;19.00;40.00;;;;;;5074097;28;19982;-61
2022/02/22 09:35:17;;;;;;;;;;;19.00;40.00;;;;;;5088093;28;19921;-60
2022/02/22 09:37:42;;;;;;;;;;;19.00;40.00;;;;;;5074369;28;20399;-60
2022/02/22 09:40:08;;;;;;;;;;;19.00;40.00;;;;;;5092155;28;19916;-61
2022/02/22 09:42:34;;;;;;;;;;;19.00;39.90;;;;;;5075662;28;19913;-61
2022/02/22 09:44:59;;;;;;;;;;;19.00;40.10;;;;;;5094322;28;19916;-61
2022/02/22 09:47:25;;;;;;;;;;;19.00;40.10;;;;;;5087119;28;20024;-60
2022/02/22 09:49:51;;;;;;;;;;;19.00;40.10;;;;;;5089989;28;20023;-61
2022/02/22 09:52:16;;;;;;;;;;;19.10;40.10;;;;;;5093996;28;19963;-62
2022/02/22 09:54:42;;;;;;;;;;;19.10;40.10;;;;;;5093784;28;20312;-61
2022/02/22 09:57:07;;;;;;;;;;;19.10;40.10;;;;;;5093539;28;19959;-61
2022/02/22 09:59:33;;;;;;;;;;;19.10;40.20;;;;;;5093247;28;20053;-61
2022/02/22 10:01:59;;;;;;;;;;;19.10;40.20;;;;;;5093789;28;19950;-62
2022/02/22 10:04:25;;;;;;;;;;;19.10;40.20;;;;;;5093622;28;20429;-61
2022/02/22 10:06:59;;;;;;;;;;;19.20;40.30;;;;;;5087757;28;19924;-61
2022/02/22 10:09:24;;;;;;;;;;;19.20;40.30;;;;;;5073503;28;19908;-61
2022/02/22 10:11:51;;;;;;;;;;;19.20;40.20;;;;;;5074124;28;19912;-61
2022/02/22 10:14:20;;;;;;;;;;;19.30;40.30;;;;;;5054989;28;19908;-63
2022/02/22 10:16:46;;;;;;;;;;;19.20;40.30;;;;;;5076088;28;19915;-62
2022/02/22 10:19:14;;;;;;;;;;;19.30;40.40;;;;;;5073337;28;20019;-62
2022/02/22 10:21:44;;;;;;;;;;;19.30;40.40;;;;;;5079515;28;19927;-61
2022/02/22 10:24:10;;;;;;;;;;;19.30;40.40;;;;;;5093301;28;20360;-62
2022/02/22 10:26:35;;;;;;;;;;;19.30;40.50;;;;;;5092616;28;19917;-62
2022/02/22 10:29:11;;;;;;;;;;;19.30;40.50;;;;;;5076173;28;20280;-62
2022/02/22 10:31:38;;;;;;;;;;;19.40;40.60;;;;;;5054148;28;19909;-61
2022/02/22 10:34:03;;;;;;;;;;;19.40;40.40;;;;;;5078833;28;20436;-61
2022/02/22 10:36:33;;;;;;;;;;;19.40;40.50;;;;;;5091926;28;19947;-61
2022/02/22 10:39:12;;;;;;;;;;;19.40;40.60;;;;;;5080776;28;19944;-62
2022/02/22 10:41:41;;;;;;;;;;;19.40;40.60;;;;;;5091767;28;19919;-62
2022/02/22 10:44:09;;;;;;;;;;;19.40;40.60;;;;;;5092313;28;19912;-61
2022/02/22 10:46:37;;;;;;;;;;;19.40;40.60;;;;;;5092023;28;20321;-61
2022/02/22 10:49:03;;;;;;;;;;;19.40;40.60;;;;;;5092750;28;19915;-60
2022/02/22 10:51:32;;;;;;;;;;;19.40;40.60;;;;;;5077350;28;20407;-61
2022/02/22 10:53:58;;;;;;;;;;;19.40;40.70;;;;;;5072984;28;19912;-62
2022/02/22 10:56:25;;;;;;;;;;;19.30;40.70;;;;;;5089984;28;19916;-61
2022/02/22 10:58:51;;;;;;;;;;;19.30;40.70;;;;;;5092996;28;19943;-61
2022/02/22 11:01:23;;;;;;;;;;;19.40;40.70;;;;;;5092670;28;20376;-61
2022/02/22 11:03:48;;;;;;;;;;;19.40;40.70;;;;;;5092865;28;19908;-62
2022/02/22 11:06:14;;;;;;;;;;;19.30;40.60;;;;;;5092193;28;19972;-61
2022/02/22 11:08:42;;;;;;;;;;;19.40;40.60;;;;;;5092707;28;19912;-61
2022/02/22 11:11:12;;;;;;;;;;;19.40;40.60;;;;;;5091807;28;19919;-61
2022/02/22 11:13:39;;;;;;;;;;;19.50;40.60;;;;;;5091075;28;19931;-61
2022/02/22 11:16:17;;;;;;;;;;;19.50;40.50;;;;;;5090815;28;19953;-62
2022/02/22 11:18:44;;;;;;;;;;;19.50;40.50;;;;;;5090154;28;20313;-61
2022/02/22 11:21:10;;;;;;;;;;;19.50;40.40;;;;;;5085554;28;19912;-61
2022/02/22 11:23:36;;;;;;;;;;;19.60;40.30;;;;;;5071828;28;20288;-62
2022/02/22 11:26:04;;;;;;;;;;;19.70;40.20;;;;;;5075375;28;19950;-61
2022/02/22 11:28:33;;;;;;;;;;;19.70;40.10;;;;;;5082186;28;19916;-61
2022/02/22 11:31:03;;;;;;;;;;;19.70;40.10;;;;;;5088942;28;20302;-61
2022/02/22 11:33:36;;;;;;;;;;;19.70;40.10;;;;;;5075104;28;19913;-61
2022/02/22 11:36:05;;;;;;;;;;;19.80;40.10;;;;;;5089385;28;19999;-61
2022/02/22 11:38:41;;;;;;;;;;;19.80;40.10;;;;;;5091974;28;20423;-61
2022/02/22 11:41:17;;;;;;;;;;;19.80;40.10;;;;;;5074189;28;20389;-61
2022/02/22 11:43:50;;;;;;;;;;;19.80;40.20;;;;;;5091302;28;20366;-61
2022/02/22 11:46:15;;;;;;;;;;;19.80;40.10;;;;;;5090698;28;19919;-61
2022/02/22 11:48:41;;;;;;;;;;;19.90;40.10;;;;;;5091750;28;20002;-60
2022/02/22 11:51:10;;;;;;;;;;;19.90;40.10;;;;;;5092153;28;19919;-61
2022/02/22 11:53:36;;;;;;;;;;;19.90;40.20;;;;;;5092252;28;20289;-61
2022/02/22 11:56:02;;;;;;;;;;;19.90;40.10;;;;;;5092388;28;19919;-61
2022/02/22 11:58:29;;;;;;;;;;;20.00;40.10;;;;;;5074049;28;19916;-60
2022/02/22 12:01:00;;;;;;;;;;;19.90;40.20;;;;;;5091953;28;19927;-62
2022/02/22 12:03:27;;;;;;;;;;;20.00;40.10;;;;;;5091787;28;19912;-61
2022/02/22 12:06:00;;;;;;;;;;;20.00;40.10;;;;;;5091981;28;19920;-61
2022/02/22 12:08:34;;;;;;;;;;;20.00;40.10;;;;;;5092078;28;19908;-61
2022/02/22 12:11:01;;;;;;;;;;;20.00;40.10;;;;;;5092154;28;19912;-61
2022/02/22 12:13:38;;;;;;;;;;;20.10;40.10;;;;;;5073932;28;19923;-63
2022/02/22 12:16:20;;;;;;;;;;;20.10;40.10;;;;;;5073813;28;19972;-63
2022/02/22 12:18:50;;;;;;;;;;;20.10;40.10;;;;;;5091504;28;19908;-62
2022/02/22 12:21:20;;;;;;;;;;;20.10;40.10;;;;;;5082393;28;19920;-62
2022/02/22 12:23:46;;;;;;;;;;;20.10;40.10;;;;;;5071795;28;19912;-63
2022/02/22 12:26:13;;;;;;;;;;;20.10;40.10;;;;;;5090033;28;19977;-63
2022/02/22 12:28:43;;;;;;;;;;;20.10;40.10;;;;;;5091827;28;20354;-61
2022/02/22 12:31:09;;;;;;;;;;;20.10;40.10;;;;;;5091469;28;20321;-62
2022/02/22 12:33:35;;;;;;;;;;;20.10;40.10;;;;;;5091626;28;19912;-62
2022/02/22 12:36:16;;;;;;;;;;;20.20;40.00;;;;;;5091779;28;19916;-62
2022/02/22 12:38:43;;;;;;;;;;;20.20;40.10;;;;;;5073465;28;19912;-62
2022/02/22 12:41:12;;;;;;;;;;;20.20;40.10;;;;;;5091850;28;19954;-62
2022/02/22 12:43:44;;;;;;;;;;;20.20;40.10;;;;;;5091761;28;19949;-63
2022/02/22 12:46:10;;;;;;;;;;;20.20;40.10;;;;;;5073694;28;19943;-63
2022/02/22 12:48:38;;;;;;;;;;;20.20;40.10;;;;;;5091450;28;20359;-63
2022/02/22 12:51:03;;;;;;;;;;;20.20;40.20;;;;;;5092042;28;19912;-61
2022/02/22 12:53:32;;;;;;;;;;;20.20;40.10;;;;;;5092187;28;19999;-63
2022/02/22 12:55:58;;;;;;;;;;;20.20;40.20;;;;;;5091509;28;19912;-62
2022/02/22 12:58:34;;;;;;;;;;;20.20;40.10;;;;;;5091365;28;20394;-61
2022/02/22 13:01:21;;;;;;;;;;;20.20;40.00;;;;;;5090850;28;19927;-61
2022/02/22 13:03:47;;;;;;;;;;;20.20;40.00;;;;;;5091527;28;19955;-63
2022/02/22 13:06:13;;;;;;;;;;;20.20;40.10;;;;;;5091317;28;19964;-63
2022/02/22 13:08:39;;;;;;;;;;;20.20;40.10;;;;;;5089071;28;19916;-63
2022/02/22 13:11:05;;;;;;;;;;;20.30;40.20;;;;;;5089785;28;19912;-64
2022/02/22 13:13:31;;;;;;;;;;;20.20;40.20;;;;;;5089716;28;19980;-62
2022/02/22 13:16:06;;;;;;;;;;;20.30;40.20;;;;;;5091974;28;19912;-63
2022/02/22 13:18:32;;;;;;;;;;;20.30;40.20;;;;;;5093058;28;20355;-63
2022/02/22 13:20:57;;;;;;;;;;;20.40;40.30;;;;;;5093960;28;19919;-64
2022/02/22 13:23:32;;;;;;;;;;;20.30;40.20;;;;;;5093671;28;19908;-64
2022/02/22 13:25:58;;;;;;;;;;;20.30;40.20;;;;;;5093139;28;19920;-63
2022/02/22 13:28:31;;;;;;;;;;;20.40;40.20;;;;;;5093016;28;19912;-64
2022/02/22 13:30:57;;;;;;;;;;;20.40;40.20;;;;;;5092989;28;19955;-65
2022/02/22 13:33:23;;;;;;;;;;;20.40;40.20;;;;;;5092877;28;19951;-63
2022/02/22 13:35:55;;;;;;;;;;;20.40;40.20;;;;;;5093271;28;20013;-64
2022/02/22 13:38:21;;;;;;;;;;;20.40;40.20;;;;;;5094594;28;19912;-63
2022/02/22 13:40:47;;;;;;;;;;;20.40;40.20;;;;;;5094744;28;19934;-63
2022/02/22 13:43:13;;;;;;;;;;;20.40;40.30;;;;;;5094818;28;20370;-63
2022/02/22 13:45:40;;;;;;;;;;;20.40;40.30;;;;;;5095124;28;19923;-63
2022/02/22 13:48:07;;;;;;;;;;;20.40;40.30;;;;;;5095262;28;19977;-63
2022/02/22 13:50:33;;;;;;;;;;;20.40;40.30;;;;;;5094742;28;20402;-63
2022/02/22 13:53:08;;;;;;;;;;;20.40;40.30;;;;;;5088831;28;19912;-64
2022/02/22 13:55:34;;;;;;;;;;;20.40;40.20;;;;;;5089960;28;19919;-63
2022/02/22 13:58:02;;;;;;;;;;;20.40;40.20;;;;;;5094546;28;19984;-63
2022/02/22 14:00:28;;;;;;;;;;;20.50;40.20;;;;;;5094262;28;19920;-63
2022/02/22 14:03:03;;;;;;;;;;;20.40;40.30;;;;;;5094324;28;19987;-63
2022/02/22 14:05:29;;;;;;;;;;;20.40;40.20;;;;;;5094335;28;20012;-63
2022/02/22 14:07:54;;;;;;;;;;;20.50;40.20;;;;;;5094566;28;20363;-64
2022/02/22 14:10:20;;;;;;;;;;;20.50;40.30;;;;;;5094154;28;19919;-63
2022/02/22 14:12:45;;;;;;;;;;;20.50;40.20;;;;;;5094122;28;19948;-63